createdAt,value
2018-01-22T00:01:14.754Z,1006.00
2018-01-22T00:03:16.160Z,1005.92
2018-01-22T00:05:17.565Z,1005.74
2018-01-22T00:07:18.986Z,1005.72
2018-01-22T00:09:20.403Z,1005.70
2018-01-22T00:12:02.792Z,1005.60
2018-01-22T00:14:04.192Z,1005.47
2018-01-22T00:16:05.606Z,1005.25
2018-01-22T00:18:07.008Z,1005.24
2018-01-22T00:20:08.421Z,1005.13
2018-01-22T00:22:09.838Z,1005.04
2018-01-22T00:24:11.236Z,1005.07
2018-01-22T00:26:12.638Z,1004.96
2018-01-22T00:28:14.037Z,1004.90
2018-01-22T00:30:15.443Z,1004.85
2018-01-22T00:32:57.854Z,1004.84
2018-01-22T00:34:59.264Z,1004.90
2018-01-22T00:37:00.670Z,1004.79
2018-01-22T00:39:02.074Z,1004.80
2018-01-22T00:41:03.473Z,1004.86
2018-01-22T00:43:04.880Z,1004.63
2018-01-22T00:45:06.286Z,1004.47
2018-01-22T00:47:07.692Z,1004.27
2018-01-22T00:49:09.187Z,1004.14
2018-01-22T00:51:10.592Z,1004.05
2018-01-22T00:53:12.001Z,1004.02
2018-01-22T00:55:13.402Z,1003.91
2018-01-22T00:57:14.811Z,1003.88
2018-01-22T00:59:16.219Z,1003.88
2018-01-22T01:01:17.615Z,1004.05
2018-01-22T01:03:19.023Z,1004.14
2018-01-22T01:06:01.398Z,1004.21
2018-01-22T01:08:02.803Z,1004.09
2018-01-22T01:10:04.207Z,1004.01
2018-01-22T01:12:05.612Z,1004.06
2018-01-22T01:14:07.020Z,1003.98
2018-01-22T01:16:08.427Z,1003.96
2018-01-22T01:18:09.830Z,1003.90
2018-01-22T01:20:11.271Z,1003.88
2018-01-22T01:22:12.677Z,1003.88
2018-01-22T01:24:14.137Z,1003.92
2018-01-22T01:26:56.456Z,1003.84
2018-01-22T01:28:57.864Z,1003.74
2018-01-22T01:30:59.265Z,1003.63
2018-01-22T01:33:00.672Z,1003.61
2018-01-22T01:35:02.075Z,1003.63
2018-01-22T01:37:03.478Z,1003.65
2018-01-22T01:39:04.889Z,1003.55
2018-01-22T01:41:06.288Z,1003.50
2018-01-22T01:43:07.694Z,1003.48
2018-01-22T01:45:50.076Z,1003.40
2018-01-22T01:47:51.480Z,1003.34
2018-01-22T01:49:52.883Z,1003.29
2018-01-22T01:51:54.290Z,1003.26
2018-01-22T01:53:55.694Z,1003.24
2018-01-22T01:55:57.098Z,1003.08
2018-01-22T01:57:58.505Z,1003.06
2018-01-22T01:59:59.910Z,1002.98
2018-01-22T02:02:01.313Z,1002.96
2018-01-22T02:04:02.715Z,1002.92
2018-01-22T02:06:04.117Z,1002.89
2018-01-22T02:08:05.522Z,1003.09
2018-01-22T02:10:06.923Z,1002.93
2018-01-22T02:12:08.326Z,1002.93
2018-01-22T02:14:09.729Z,1002.91
2018-01-22T02:16:11.138Z,1002.88
2018-01-22T02:18:12.539Z,1002.91
2018-01-22T02:20:13.939Z,1002.81
2018-01-22T02:22:15.341Z,1002.70
2018-01-22T02:24:16.745Z,1002.60
2018-01-22T02:26:18.145Z,1002.50
2018-01-22T02:28:19.558Z,1002.42
2018-01-22T02:30:20.962Z,1002.32
2018-01-22T02:32:22.366Z,1002.26
2018-01-22T02:34:23.773Z,1002.31
2018-01-22T02:36:25.178Z,1002.13
2018-01-22T02:38:26.590Z,1001.99
2018-01-22T02:40:27.990Z,1001.83
2018-01-22T02:42:29.421Z,1001.72
2018-01-22T02:44:30.828Z,1001.81
2018-01-22T02:46:32.229Z,1001.81
2018-01-22T02:48:33.627Z,1001.73
2018-01-22T02:50:35.027Z,1001.59
2018-01-22T02:52:36.434Z,1001.60
2018-01-22T02:54:37.835Z,1001.61
2018-01-22T02:56:39.245Z,1001.63
2018-01-22T02:58:40.651Z,1001.57
2018-01-22T03:00:42.051Z,1001.56
2018-01-22T03:02:43.456Z,1001.49
2018-01-22T03:04:44.859Z,1001.47
2018-01-22T03:06:46.265Z,1001.38
2018-01-22T03:08:47.695Z,1001.44
2018-01-22T03:10:49.079Z,1001.45
2018-01-22T03:12:50.495Z,1001.46
2018-01-22T03:14:51.894Z,1001.47
2018-01-22T03:16:53.341Z,1001.40
2018-01-22T03:18:54.702Z,1001.34
2018-01-22T03:20:56.102Z,1001.32
2018-01-22T03:22:57.509Z,1001.29
2018-01-22T03:24:58.906Z,1001.20
2018-01-22T03:27:00.315Z,1001.21
2018-01-22T03:29:01.721Z,1001.19
2018-01-22T03:31:03.125Z,1001.15
2018-01-22T03:33:04.529Z,1001.14
2018-01-22T03:35:05.981Z,1001.15
2018-01-22T03:37:07.333Z,1001.22
2018-01-22T03:39:08.736Z,1001.33
2018-01-22T03:41:10.259Z,1001.38
2018-01-22T03:43:11.642Z,1001.41
2018-01-22T03:45:13.054Z,1001.44
2018-01-22T03:47:14.452Z,1001.44
2018-01-22T03:49:15.855Z,1001.40
2018-01-22T03:51:17.294Z,1001.36
2018-01-22T03:53:18.692Z,1001.29
2018-01-22T03:55:20.091Z,1001.22
2018-01-22T03:57:21.497Z,1001.22
2018-01-22T03:59:22.898Z,1001.27
2018-01-22T04:01:24.305Z,1001.24
2018-01-22T04:03:25.711Z,1001.16
2018-01-22T04:05:27.117Z,1001.02
2018-01-22T04:07:28.518Z,1000.99
2018-01-22T04:09:29.912Z,1000.88
2018-01-22T04:11:31.325Z,1000.95
2018-01-22T04:13:32.735Z,1000.95
2018-01-22T04:15:34.145Z,1000.89
2018-01-22T04:17:35.532Z,1000.88
2018-01-22T04:19:36.946Z,1000.85
2018-01-22T04:21:38.355Z,1000.83
2018-01-22T04:23:39.765Z,1000.88
2018-01-22T04:25:41.207Z,1000.90
2018-01-22T04:27:42.608Z,1000.88
2018-01-22T04:29:44.015Z,1000.91
2018-01-22T04:31:45.419Z,1000.85
2018-01-22T04:33:46.824Z,1000.79
2018-01-22T04:35:48.232Z,1000.85
2018-01-22T04:37:49.635Z,1000.74
2018-01-22T04:39:51.033Z,1000.73
2018-01-22T04:41:52.439Z,1000.79
2018-01-22T04:43:53.845Z,1000.69
2018-01-22T04:45:55.245Z,1000.73
2018-01-22T04:47:56.650Z,1000.74
2018-01-22T04:49:58.053Z,1000.69
2018-01-22T04:51:59.458Z,1000.69
2018-01-22T04:54:00.861Z,1000.57
2018-01-22T04:56:02.264Z,1000.46
2018-01-22T04:58:03.669Z,1000.41
2018-01-22T05:00:05.074Z,1000.36
2018-01-22T05:02:06.482Z,1000.30
2018-01-22T05:04:07.892Z,1000.31
2018-01-22T05:06:09.293Z,1000.25
2018-01-22T05:08:10.697Z,1000.32
2018-01-22T05:10:12.109Z,1000.28
2018-01-22T05:12:13.515Z,1000.29
2018-01-22T05:14:14.919Z,1000.22
2018-01-22T05:16:16.325Z,1000.28
2018-01-22T05:18:17.727Z,1000.26
2018-01-22T05:20:19.136Z,1000.16
2018-01-22T05:22:20.548Z,1000.08
2018-01-22T05:24:21.948Z,1000.08
2018-01-22T05:26:23.352Z,1000.07
2018-01-22T05:28:24.755Z,1000.04
2018-01-22T05:30:26.162Z,999.98
2018-01-22T05:32:27.565Z,999.97
2018-01-22T05:34:28.970Z,999.96
2018-01-22T05:36:30.381Z,999.97
2018-01-22T05:38:31.782Z,999.92
2018-01-22T05:40:33.191Z,999.93
2018-01-22T05:42:34.588Z,999.88
2018-01-22T05:44:35.995Z,999.88
2018-01-22T05:46:37.398Z,999.79
2018-01-22T05:48:38.817Z,999.84
2018-01-22T05:50:40.217Z,999.86
2018-01-22T05:52:41.620Z,999.92
2018-01-22T05:54:43.026Z,999.94
2018-01-22T05:56:44.430Z,999.93
2018-01-22T05:58:45.837Z,999.95
2018-01-22T06:00:47.238Z,999.90
2018-01-22T06:02:48.643Z,999.93
2018-01-22T06:04:50.047Z,999.87
2018-01-22T06:06:51.454Z,999.82
2018-01-22T06:08:52.856Z,999.73
2018-01-22T06:10:54.253Z,999.68
2018-01-22T06:12:55.655Z,999.68
2018-01-22T06:14:57.062Z,999.74
2018-01-22T06:16:58.464Z,999.82
2018-01-22T06:18:59.866Z,999.80
2018-01-22T06:21:01.262Z,999.79
2018-01-22T06:23:02.671Z,999.80
2018-01-22T06:25:04.074Z,999.77
2018-01-22T06:27:05.477Z,999.83
2018-01-22T06:29:06.885Z,999.81
2018-01-22T06:31:08.294Z,999.82
2018-01-22T06:33:09.735Z,999.78
2018-01-22T06:35:11.126Z,999.80
2018-01-22T06:37:12.528Z,999.80
2018-01-22T06:39:13.926Z,999.74
2018-01-22T06:41:15.343Z,999.77
2018-01-22T06:43:16.742Z,999.74
2018-01-22T06:45:18.147Z,999.79
2018-01-22T06:47:19.552Z,999.80
2018-01-22T06:49:20.959Z,999.83
2018-01-22T06:51:22.383Z,999.87
2018-01-22T06:53:23.807Z,999.99
2018-01-22T06:55:25.210Z,1000.00
2018-01-22T06:57:26.618Z,1000.06
2018-01-22T06:59:28.078Z,1000.11
2018-01-22T07:01:29.471Z,1000.13
2018-01-22T07:03:30.873Z,1000.15
2018-01-22T07:05:32.282Z,1000.09
2018-01-22T07:07:33.693Z,1000.04
2018-01-22T07:09:35.086Z,1000.04
2018-01-22T07:11:36.507Z,1000.01
2018-01-22T07:13:37.914Z,1000.00
2018-01-22T07:15:39.314Z,999.99
2018-01-22T07:17:40.721Z,999.99
2018-01-22T07:19:42.132Z,1000.01
2018-01-22T07:21:43.530Z,999.95
2018-01-22T07:23:44.936Z,999.86
2018-01-22T07:25:46.349Z,999.86
2018-01-22T07:27:47.762Z,999.83
2018-01-22T07:29:49.174Z,999.80
2018-01-22T07:31:50.581Z,999.81
2018-01-22T07:33:51.982Z,999.85
2018-01-22T07:35:53.387Z,999.89
2018-01-22T07:37:54.795Z,999.89
2018-01-22T07:39:56.191Z,999.86
2018-01-22T07:41:57.603Z,999.94
2018-01-22T07:43:59.007Z,1000.00
2018-01-22T07:46:00.425Z,999.99
2018-01-22T07:48:01.855Z,999.99
2018-01-22T07:50:03.283Z,1000.01
2018-01-22T07:52:04.753Z,999.99
2018-01-22T07:54:06.155Z,1000.07
2018-01-22T07:56:07.576Z,1000.12
2018-01-22T07:58:08.989Z,1000.20
2018-01-22T08:00:10.396Z,1000.15
2018-01-22T08:02:11.803Z,1000.14
2018-01-22T08:04:13.212Z,1000.13
2018-01-22T08:06:14.614Z,1000.08
2018-01-22T08:08:16.021Z,1000.09
2018-01-22T08:10:17.424Z,1000.11
2018-01-22T08:12:18.906Z,1000.09
2018-01-22T08:14:20.356Z,1000.10
2018-01-22T08:16:21.763Z,1000.07
2018-01-22T08:18:23.179Z,1000.09
2018-01-22T08:20:24.672Z,1000.06
2018-01-22T08:22:26.077Z,1000.07
2018-01-22T08:24:27.480Z,1000.04
2018-01-22T08:26:28.890Z,1000.04
2018-01-22T08:28:30.297Z,1000.06
2018-01-22T08:30:31.707Z,1000.08
2018-01-22T08:32:33.168Z,1000.06
2018-01-22T08:34:34.578Z,1000.08
2018-01-22T08:36:36.003Z,1000.12
2018-01-22T08:38:37.399Z,1000.11
2018-01-22T08:40:38.815Z,1000.07
2018-01-22T08:42:40.223Z,1000.15
2018-01-22T08:44:41.630Z,1000.18
2018-01-22T08:46:43.036Z,1000.23
2018-01-22T08:48:44.455Z,1000.27
2018-01-22T08:50:45.861Z,1000.29
2018-01-22T08:52:47.266Z,1000.31
2018-01-22T08:54:48.675Z,1000.31
2018-01-22T08:56:50.078Z,1000.29
2018-01-22T08:58:51.496Z,1000.29
2018-01-22T09:00:52.911Z,1000.34
2018-01-22T09:02:54.333Z,1000.33
2018-01-22T09:04:55.745Z,1000.39
2018-01-22T09:06:57.152Z,1000.46
2018-01-22T09:08:58.575Z,1000.46
2018-01-22T09:10:59.982Z,1000.49
2018-01-22T09:13:01.392Z,1000.52
2018-01-22T09:15:02.795Z,1000.54
2018-01-22T09:17:04.204Z,1000.53
2018-01-22T09:19:05.611Z,1000.50
2018-01-22T09:21:07.019Z,1000.49
2018-01-22T09:23:08.428Z,1000.55
2018-01-22T09:25:09.830Z,1000.60
2018-01-22T09:27:11.254Z,1000.56
2018-01-22T09:29:12.660Z,1000.58
2018-01-22T09:31:14.082Z,1000.58
2018-01-22T09:33:15.490Z,1000.65
2018-01-22T09:35:16.896Z,1000.67
2018-01-22T09:37:18.305Z,1000.65
2018-01-22T09:39:19.714Z,1000.71
2018-01-22T09:41:21.124Z,1000.73
2018-01-22T09:43:22.533Z,1000.81
2018-01-22T09:45:23.936Z,1000.77
2018-01-22T09:47:25.372Z,1000.83
2018-01-22T09:49:26.761Z,1000.82
2018-01-22T09:51:28.180Z,1000.82
2018-01-22T09:53:29.588Z,1000.82
2018-01-22T09:55:30.998Z,1000.82
2018-01-22T09:57:32.405Z,1000.76
2018-01-22T09:59:33.816Z,1000.81
2018-01-22T10:01:35.224Z,1000.76
2018-01-22T10:03:36.636Z,1000.74
2018-01-22T10:05:38.142Z,1000.75
2018-01-22T10:07:39.701Z,1000.80
2018-01-22T10:09:41.116Z,1000.87
2018-01-22T10:11:42.617Z,1000.90
2018-01-22T10:13:44.030Z,1000.93
2018-01-22T10:15:45.435Z,1000.97
2018-01-22T10:17:46.847Z,1001.05
2018-01-22T10:19:48.257Z,1001.00
2018-01-22T10:21:49.656Z,1001.07
2018-01-22T10:23:51.240Z,1001.11
2018-01-22T10:25:52.976Z,1001.12
2018-01-22T10:27:54.430Z,1001.16
2018-01-22T10:29:55.867Z,1001.17
2018-01-22T10:31:57.339Z,1001.13
2018-01-22T10:33:58.810Z,1001.15
2018-01-22T10:36:00.546Z,1001.10
2018-01-22T10:38:02.900Z,1001.06
2018-01-22T10:40:04.685Z,1001.08
2018-01-22T10:42:06.216Z,1001.10
2018-01-22T10:44:07.741Z,1001.14
2018-01-22T10:46:09.189Z,1001.19
2018-01-22T10:48:10.613Z,1001.23
2018-01-22T10:50:12.028Z,1001.23
2018-01-22T10:52:13.559Z,1001.30
2018-01-22T10:54:14.969Z,1001.31
2018-01-22T10:56:16.385Z,1001.31
2018-01-22T10:58:17.794Z,1001.34
2018-01-22T11:00:19.205Z,1001.36
2018-01-22T11:02:20.628Z,1001.41
2018-01-22T11:04:22.040Z,1001.37
2018-01-22T11:06:23.453Z,1001.36
2018-01-22T11:08:24.894Z,1001.37
2018-01-22T11:10:26.304Z,1001.40
2018-01-22T11:12:27.721Z,1001.39
2018-01-22T11:14:29.153Z,1001.40
2018-01-22T11:16:30.586Z,1001.49
2018-01-22T11:18:32.279Z,1001.45
2018-01-22T11:20:33.695Z,1001.47
2018-01-22T11:22:35.156Z,1001.49
2018-01-22T11:24:36.592Z,1001.56
2018-01-22T11:26:38.022Z,1001.57
2018-01-22T11:28:39.584Z,1001.59
2018-01-22T11:30:40.936Z,1001.53
2018-01-22T11:32:42.439Z,1001.55
2018-01-22T11:34:43.883Z,1001.53
2018-01-22T11:36:45.264Z,1001.51
2018-01-22T11:38:46.672Z,1001.50
2018-01-22T11:40:48.092Z,1001.51
2018-01-22T11:42:49.507Z,1001.57
2018-01-22T11:44:50.924Z,1001.58
2018-01-22T11:46:52.352Z,1001.57
2018-01-22T11:48:53.764Z,1001.63
2018-01-22T11:50:55.200Z,1001.60
2018-01-22T11:52:56.602Z,1001.61
2018-01-22T11:54:58.014Z,1001.61
2018-01-22T11:56:59.428Z,1001.67
2018-01-22T11:59:00.843Z,1001.71
2018-01-22T12:01:02.263Z,1001.79
2018-01-22T12:03:03.682Z,1001.83
2018-01-22T12:05:05.092Z,1001.84
2018-01-22T12:07:06.527Z,1001.84
2018-01-22T12:09:07.940Z,1001.86
2018-01-22T12:11:09.354Z,1001.90
2018-01-22T12:13:10.761Z,1001.88
2018-01-22T12:15:12.180Z,1001.87
2018-01-22T12:17:13.590Z,1001.80
2018-01-22T12:19:15.009Z,1001.78
2018-01-22T12:21:16.417Z,1001.80
2018-01-22T12:23:17.829Z,1001.77
2018-01-22T12:25:19.238Z,1001.78
2018-01-22T12:27:20.950Z,1001.79
2018-01-22T12:29:22.349Z,1001.79
2018-01-22T12:31:23.767Z,1001.80
2018-01-22T12:33:25.188Z,1001.82
2018-01-22T12:35:26.598Z,1001.87
2018-01-22T12:37:28.035Z,1001.95
2018-01-22T12:39:29.422Z,1001.97
2018-01-22T12:41:30.842Z,1002.02
2018-01-22T12:43:32.254Z,1002.03
2018-01-22T12:45:33.662Z,1002.07
2018-01-22T12:47:35.090Z,1002.10
2018-01-22T12:49:36.507Z,1002.15
2018-01-22T12:51:37.917Z,1002.18
2018-01-22T12:53:39.329Z,1002.22
2018-01-22T12:55:40.757Z,1002.24
2018-01-22T12:57:42.165Z,1002.29
2018-01-22T12:59:43.579Z,1002.32
2018-01-22T13:01:45.075Z,1002.30
2018-01-22T13:03:46.482Z,1002.27
2018-01-22T13:05:47.987Z,1002.27
2018-01-22T13:07:49.607Z,1002.33
2018-01-22T13:09:51.037Z,1002.31
2018-01-22T13:11:52.558Z,1002.32
2018-01-22T13:13:53.970Z,1002.33
2018-01-22T13:15:55.385Z,1002.35
2018-01-22T13:17:56.802Z,1002.31
2018-01-22T13:19:58.215Z,1002.35
2018-01-22T13:21:59.630Z,1002.43
2018-01-22T13:24:01.041Z,1002.42
2018-01-22T13:26:02.555Z,1002.48
2018-01-22T13:28:03.944Z,1002.47
2018-01-22T13:30:05.363Z,1002.54
2018-01-22T13:32:06.790Z,1002.55
2018-01-22T13:34:08.205Z,1002.52
2018-01-22T13:36:09.702Z,1002.55
2018-01-22T13:38:11.103Z,1002.59
2018-01-22T13:40:12.517Z,1002.66
2018-01-22T13:42:13.930Z,1002.64
2018-01-22T13:44:15.347Z,1002.60
2018-01-22T13:46:16.760Z,1002.59
2018-01-22T13:48:18.194Z,1002.49
2018-01-22T13:50:19.606Z,1002.52
2018-01-22T13:52:21.020Z,1002.57
2018-01-22T13:54:22.439Z,1002.56
2018-01-22T13:56:23.849Z,1002.54
2018-01-22T13:58:25.268Z,1002.59
2018-01-22T14:00:26.679Z,1002.68
2018-01-22T14:02:28.111Z,1002.72
2018-01-22T14:04:29.529Z,1002.74
2018-01-22T14:06:30.997Z,1002.72
2018-01-22T14:08:32.443Z,1002.70
2018-01-22T14:10:33.907Z,1002.77
2018-01-22T14:12:35.348Z,1002.90
2018-01-22T14:14:36.809Z,1003.00
2018-01-22T14:16:38.250Z,1003.00
2018-01-22T14:18:39.719Z,1003.02
2018-01-22T14:20:41.310Z,1003.01
2018-01-22T14:22:42.742Z,1003.05
2018-01-22T14:24:44.152Z,1003.13
2018-01-22T14:26:45.565Z,1003.26
2018-01-22T14:28:46.979Z,1003.21
2018-01-22T14:30:48.393Z,1003.24
2018-01-22T14:32:49.804Z,1003.30
2018-01-22T14:34:51.224Z,1003.34
2018-01-22T14:36:52.639Z,1003.35
2018-01-22T14:38:54.074Z,1003.34
2018-01-22T14:40:55.487Z,1003.33
2018-01-22T14:42:56.934Z,1003.33
2018-01-22T14:44:58.360Z,1003.33
2018-01-22T14:46:59.767Z,1003.45
2018-01-22T14:49:01.180Z,1003.47
2018-01-22T14:51:02.591Z,1003.49
2018-01-22T14:53:04.027Z,1003.53
2018-01-22T14:55:05.414Z,1003.54
2018-01-22T14:57:06.827Z,1003.56
2018-01-22T14:59:08.238Z,1003.60
2018-01-22T15:01:09.650Z,1003.65
2018-01-22T15:03:11.057Z,1003.73
2018-01-22T15:05:12.471Z,1003.80
2018-01-22T15:07:13.882Z,1003.86
2018-01-22T15:09:15.297Z,1003.86
2018-01-22T15:11:16.710Z,1003.85
2018-01-22T15:13:18.123Z,1003.92
2018-01-22T15:15:19.533Z,1003.97
2018-01-22T15:17:20.998Z,1004.00
2018-01-22T15:19:22.413Z,1004.08
2018-01-22T15:21:23.831Z,1004.12
2018-01-22T15:23:27.488Z,1004.18
2018-01-22T15:25:28.870Z,1004.31
2018-01-22T15:27:30.264Z,1004.32
2018-01-22T15:29:31.668Z,1004.38
2018-01-22T15:31:33.077Z,1004.40
2018-01-22T15:33:34.528Z,1004.45
2018-01-22T15:35:35.936Z,1004.52
2018-01-22T15:37:37.348Z,1004.53
2018-01-22T15:39:38.759Z,1004.55
2018-01-22T15:41:40.253Z,1004.61
2018-01-22T15:43:41.664Z,1004.61
2018-01-22T15:45:43.086Z,1004.60
2018-01-22T15:47:44.484Z,1004.63
2018-01-22T15:49:45.904Z,1004.61
2018-01-22T15:51:47.396Z,1004.61
2018-01-22T15:53:49.083Z,1004.58
2018-01-22T15:55:50.510Z,1004.64
2018-01-22T15:57:52.052Z,1004.71
2018-01-22T15:59:53.666Z,1004.75
2018-01-22T16:01:55.111Z,1004.73
2018-01-22T16:03:56.555Z,1004.76
2018-01-22T16:05:57.972Z,1004.82
2018-01-22T16:07:59.614Z,1004.91
2018-01-22T16:10:01.009Z,1004.96
2018-01-22T16:12:02.540Z,1005.02
2018-01-22T16:14:03.946Z,1005.06
2018-01-22T16:16:05.354Z,1005.14
2018-01-22T16:18:06.762Z,1005.24
2018-01-22T16:20:08.177Z,1005.34
2018-01-22T16:22:09.586Z,1005.34
2018-01-22T16:24:10.995Z,1005.35
2018-01-22T16:26:12.407Z,1005.39
2018-01-22T16:28:13.815Z,1005.39
2018-01-22T16:30:15.225Z,1005.43
2018-01-22T16:32:16.638Z,1005.42
2018-01-22T16:34:18.047Z,1005.53
2018-01-22T16:36:19.457Z,1005.54
2018-01-22T16:38:20.872Z,1005.52
2018-01-22T16:40:22.278Z,1005.58
2018-01-22T16:42:23.686Z,1005.63
2018-01-22T16:44:25.108Z,1005.67
2018-01-22T16:46:26.546Z,1005.76
2018-01-22T16:48:28.098Z,1005.79
2018-01-22T16:50:29.507Z,1005.77
2018-01-22T16:52:30.916Z,1005.84
2018-01-22T16:54:32.326Z,1005.90
2018-01-22T16:56:33.766Z,1005.93
2018-01-22T16:58:35.146Z,1006.00
2018-01-22T17:00:36.556Z,1005.98
2018-01-22T17:02:37.967Z,1006.01
2018-01-22T17:04:39.372Z,1006.07
2018-01-22T17:06:40.777Z,1006.11
2018-01-22T17:08:42.188Z,1006.16
2018-01-22T17:10:43.601Z,1006.25
2018-01-22T17:12:45.028Z,1006.28
2018-01-22T17:14:46.520Z,1006.36
2018-01-22T17:16:47.933Z,1006.41
2018-01-22T17:18:49.345Z,1006.41
2018-01-22T17:20:50.827Z,1006.40
2018-01-22T17:22:52.235Z,1006.48
2018-01-22T17:24:53.645Z,1006.56
2018-01-22T17:26:55.054Z,1006.59
2018-01-22T17:28:56.464Z,1006.66
2018-01-22T17:30:57.872Z,1006.70
2018-01-22T17:32:59.338Z,1006.75
2018-01-22T17:35:00.789Z,1006.78
2018-01-22T17:37:02.197Z,1006.85
2018-01-22T17:39:03.648Z,1006.81
2018-01-22T17:41:05.073Z,1006.81
2018-01-22T17:43:06.678Z,1006.91
2018-01-22T17:45:08.501Z,1006.95
2018-01-22T17:47:09.951Z,1006.96
2018-01-22T17:49:11.364Z,1007.00
2018-01-22T17:51:12.774Z,1007.00
2018-01-22T17:53:14.186Z,1007.04
2018-01-22T17:55:15.594Z,1007.06
2018-01-22T17:57:17.027Z,1007.10
2018-01-22T17:59:18.446Z,1007.08
2018-01-22T18:01:19.856Z,1007.10
2018-01-22T18:03:21.262Z,1007.14
2018-01-22T18:05:22.675Z,1007.14
2018-01-22T18:07:24.083Z,1007.16
2018-01-22T18:09:25.493Z,1007.24
2018-01-22T18:11:26.906Z,1007.27
2018-01-22T18:13:28.315Z,1007.29
2018-01-22T18:15:29.731Z,1007.35
2018-01-22T18:17:31.157Z,1007.35
2018-01-22T18:19:32.574Z,1007.38
2018-01-22T18:21:33.999Z,1007.41
2018-01-22T18:23:35.410Z,1007.46
2018-01-22T18:25:36.821Z,1007.46
2018-01-22T18:27:38.252Z,1007.48
2018-01-22T18:29:39.677Z,1007.52
2018-01-22T18:31:41.133Z,1007.50
2018-01-22T18:33:42.503Z,1007.51
2018-01-22T18:35:43.910Z,1007.60
2018-01-22T18:37:45.338Z,1007.61
2018-01-22T18:39:46.751Z,1007.64
2018-01-22T18:41:48.159Z,1007.70
2018-01-22T18:43:49.568Z,1007.80
2018-01-22T18:45:50.980Z,1007.87
2018-01-22T18:47:52.391Z,1007.83
2018-01-22T18:49:53.803Z,1007.86
2018-01-22T18:51:55.992Z,1007.88
2018-01-22T18:53:57.404Z,1007.87
2018-01-22T18:55:59.376Z,1007.84
2018-01-22T18:58:00.789Z,1007.94
2018-01-22T19:00:02.212Z,1007.98
2018-01-22T19:02:03.640Z,1008.07
2018-01-22T19:04:05.051Z,1008.13
2018-01-22T19:06:07.319Z,1008.07
2018-01-22T19:08:08.735Z,1008.07
2018-01-22T19:10:10.274Z,1008.09
2018-01-22T19:12:11.851Z,1008.18
2018-01-22T19:14:13.341Z,1008.21
2018-01-22T19:16:15.482Z,1008.21
2018-01-22T19:18:16.914Z,1008.20
2018-01-22T19:20:18.324Z,1008.20
2018-01-22T19:22:19.860Z,1008.24
2018-01-22T19:24:21.258Z,1008.24
2018-01-22T19:26:23.432Z,1008.35
2018-01-22T19:28:24.851Z,1008.46
2018-01-22T19:30:26.255Z,1008.47
2018-01-22T19:32:27.668Z,1008.57
2018-01-22T19:34:29.081Z,1008.49
2018-01-22T19:36:30.490Z,1008.55
2018-01-22T19:38:31.908Z,1008.55
2018-01-22T19:40:33.319Z,1008.54
2018-01-22T19:42:34.772Z,1008.64
2018-01-22T19:44:36.194Z,1008.69
2018-01-22T19:46:37.613Z,1008.87
2018-01-22T19:48:39.026Z,1008.85
2018-01-22T19:50:40.442Z,1008.63
2018-01-22T19:52:42.087Z,1008.72
2018-01-22T19:54:43.563Z,1008.71
2018-01-22T19:56:45.019Z,1008.64
2018-01-22T19:58:46.507Z,1008.78
2018-01-22T20:00:48.110Z,1008.77
2018-01-22T20:02:49.872Z,1008.83
2018-01-22T20:04:52.514Z,1008.92
2018-01-22T20:06:54.283Z,1008.84
2018-01-22T20:08:55.751Z,1008.92
2018-01-22T20:10:57.187Z,1008.97
2018-01-22T20:12:58.629Z,1008.98
2018-01-22T20:15:00.050Z,1009.08
2018-01-22T20:17:01.484Z,1009.15
2018-01-22T20:19:03.081Z,1009.10
2018-01-22T20:21:04.519Z,1009.09
2018-01-22T20:23:06.030Z,1009.12
2018-01-22T20:25:07.431Z,1009.30
2018-01-22T20:27:08.844Z,1009.35
2018-01-22T20:29:10.261Z,1009.34
2018-01-22T20:31:11.665Z,1009.36
2018-01-22T20:33:13.075Z,1009.29
2018-01-22T20:35:14.487Z,1009.28
2018-01-22T20:37:15.982Z,1009.41
2018-01-22T20:39:18.393Z,1009.44
2018-01-22T20:41:19.806Z,1009.55
2018-01-22T20:43:21.220Z,1009.59
2018-01-22T20:45:22.634Z,1009.65
2018-01-22T20:47:24.062Z,1009.60
2018-01-22T20:49:25.551Z,1009.57
2018-01-22T20:51:26.948Z,1009.49
2018-01-22T20:53:28.363Z,1009.50
2018-01-22T20:55:29.770Z,1009.52
2018-01-22T20:57:31.185Z,1009.59
2018-01-22T20:59:32.599Z,1009.64
2018-01-22T21:01:34.012Z,1009.71
2018-01-22T21:03:35.425Z,1009.81
2018-01-22T21:05:36.837Z,1009.90
2018-01-22T21:07:38.244Z,1009.94
2018-01-22T21:09:39.650Z,1009.89
2018-01-22T21:11:41.952Z,1009.88
2018-01-22T21:13:43.360Z,1009.95
2018-01-22T21:15:45.441Z,1009.97
2018-01-22T21:17:46.852Z,1010.09
2018-01-22T21:19:48.284Z,1010.13
2018-01-22T21:21:49.719Z,1010.17
2018-01-22T21:23:51.133Z,1010.20
2018-01-22T21:25:53.439Z,1010.32
2018-01-22T21:27:54.853Z,1010.28
2018-01-22T21:29:57.089Z,1010.27
2018-01-22T21:31:58.499Z,1010.34
2018-01-22T21:34:00.449Z,1010.43
2018-01-22T21:36:01.883Z,1010.48
2018-01-22T21:38:03.317Z,1010.46
2018-01-22T21:40:04.736Z,1010.43
2018-01-22T21:42:06.151Z,1010.44
2018-01-22T21:44:07.565Z,1010.50
2018-01-22T21:46:08.976Z,1010.54
2018-01-22T21:48:10.385Z,1010.54
2018-01-22T21:50:11.812Z,1010.54
2018-01-22T21:52:13.228Z,1010.56
2018-01-22T21:54:14.667Z,1010.60
2018-01-22T21:56:16.170Z,1010.65
2018-01-22T21:58:17.614Z,1010.71
2018-01-22T22:00:19.125Z,1010.75
2018-01-22T22:02:20.576Z,1010.86
2018-01-22T22:04:22.004Z,1010.87
2018-01-22T22:06:23.785Z,1010.90
2018-01-22T22:08:25.489Z,1010.92
2018-01-22T22:10:26.936Z,1010.94
2018-01-22T22:12:28.422Z,1011.01
2018-01-22T22:14:29.925Z,1011.00
2018-01-22T22:16:31.385Z,1011.01
2018-01-22T22:18:32.871Z,1011.03
2018-01-22T22:20:34.351Z,1011.06
2018-01-22T22:22:35.788Z,1011.11
2018-01-22T22:24:37.284Z,1011.11
2018-01-22T22:26:38.807Z,1011.07
2018-01-22T22:28:40.300Z,1011.08
2018-01-22T22:30:41.797Z,1011.10
2018-01-22T22:32:43.587Z,1011.08
2018-01-22T22:34:45.342Z,1011.16
2018-01-22T22:36:47.149Z,1011.20
2018-01-22T22:38:48.952Z,1011.23
2018-01-22T22:40:50.488Z,1011.28
2018-01-22T22:42:51.930Z,1011.29
2018-01-22T22:44:53.369Z,1011.35
2018-01-22T22:46:54.775Z,1011.37
2018-01-22T22:48:56.201Z,1011.44
2018-01-22T22:50:57.611Z,1011.45
2018-01-22T22:52:59.058Z,1011.53
2018-01-22T22:55:00.477Z,1011.51
2018-01-22T22:57:01.901Z,1011.56
2018-01-22T22:59:03.311Z,1011.58
2018-01-22T23:01:04.741Z,1011.60
2018-01-22T23:03:06.138Z,1011.62
2018-01-22T23:05:07.602Z,1011.69
2018-01-22T23:07:09.006Z,1011.75
2018-01-22T23:09:10.413Z,1011.76
2018-01-22T23:11:11.853Z,1011.78
2018-01-22T23:13:13.406Z,1011.84
2018-01-22T23:15:14.848Z,1011.80
2018-01-22T23:17:16.605Z,1011.94
2018-01-22T23:19:18.209Z,1011.96
2018-01-22T23:21:19.833Z,1011.98
2018-01-22T23:23:21.268Z,1012.06
2018-01-22T23:25:22.670Z,1012.14
2018-01-22T23:27:24.080Z,1012.15
2018-01-22T23:29:25.493Z,1012.24
2018-01-22T23:31:26.903Z,1012.26
2018-01-22T23:33:28.311Z,1012.31
2018-01-22T23:35:29.724Z,1012.30
2018-01-22T23:37:31.134Z,1012.38
2018-01-22T23:39:32.545Z,1012.41
2018-01-22T23:41:33.953Z,1012.47
2018-01-22T23:43:35.366Z,1012.51
2018-01-22T23:45:36.778Z,1012.45
2018-01-22T23:47:39.042Z,1012.53
2018-01-22T23:49:40.446Z,1012.63
2018-01-22T23:51:41.897Z,1012.66
2018-01-22T23:53:43.288Z,1012.72
2018-01-22T23:55:44.704Z,1012.80
2018-01-22T23:57:46.231Z,1012.91
2018-01-22T23:59:47.677Z,1012.86
